createdAt,value
2022-10-24T00:01:44.246Z,12.95
2022-10-24T00:04:13.762Z,13.05
2022-10-24T00:06:42.072Z,12.27
2022-10-24T00:09:10.331Z,11.98
2022-10-24T00:11:38.612Z,13.75
2022-10-24T00:14:06.749Z,13.43
2022-10-24T00:16:35.804Z,15.27
2022-10-24T00:19:03.978Z,13.23
2022-10-24T00:21:33.489Z,13.40
2022-10-24T00:24:02.540Z,14.38
2022-10-24T00:26:31.177Z,12.35
2022-10-24T00:31:33.161Z,11.63
2022-10-24T00:34:02.128Z,12.05
2022-10-24T00:36:30.587Z,15.23
2022-10-24T00:39:00.291Z,13.80
2022-10-24T00:41:31.376Z,11.18
2022-10-24T00:44:24.344Z,9.85
2022-10-24T00:46:55.832Z,9.73
2022-10-24T00:49:28.367Z,9.13
2022-10-24T00:52:01.962Z,8.98
2022-10-24T00:54:31.770Z,9.70
2022-10-24T00:57:06.130Z,6.60
2022-10-24T00:59:36.114Z,6.30
2022-10-24T01:02:05.114Z,8.73
2022-10-24T01:04:33.313Z,7.18
2022-10-24T01:07:15.455Z,7.03
2022-10-24T01:10:01.106Z,6.13
2022-10-24T01:12:39.874Z,6.97
2022-10-24T01:15:17.054Z,5.97
2022-10-24T01:17:56.070Z,7.72
2022-10-24T01:20:46.993Z,6.18
2022-10-24T01:23:37.493Z,7.05
2022-10-24T01:26:32.061Z,7.18
2022-10-24T01:29:09.605Z,9.95
2022-10-24T01:31:46.733Z,5.88
2022-10-24T01:34:21.735Z,7.82
2022-10-24T01:36:57.824Z,7.25
2022-10-24T01:39:30.042Z,7.20
2022-10-24T01:41:59.831Z,8.48
2022-10-24T01:44:33.468Z,7.63
2022-10-24T01:47:07.079Z,7.97
2022-10-24T01:49:38.069Z,8.43
2022-10-24T01:54:48.137Z,10.02
2022-10-24T01:57:16.618Z,7.82
2022-10-24T01:59:47.222Z,8.73
2022-10-24T02:02:23.469Z,7.18
2022-10-24T02:04:56.858Z,7.78
2022-10-24T02:07:27.681Z,7.97
2022-10-24T02:10:01.013Z,8.10
2022-10-24T02:12:31.282Z,8.02
2022-10-24T02:15:03.562Z,7.80
2022-10-24T02:17:33.350Z,7.45
2022-10-24T02:20:01.925Z,8.20
2022-10-24T02:22:37.770Z,8.52
2022-10-24T02:25:10.336Z,7.70
2022-10-24T02:27:43.201Z,9.32
2022-10-24T02:30:15.259Z,7.00
2022-10-24T02:32:48.158Z,10.77
2022-10-24T02:35:19.576Z,7.10
2022-10-24T02:37:52.063Z,6.53
2022-10-24T02:40:23.011Z,7.75
2022-10-24T02:42:56.385Z,7.13
2022-10-24T02:45:26.403Z,6.75
2022-10-24T02:48:00.621Z,6.50
2022-10-24T02:50:29.378Z,7.55
2022-10-24T02:52:57.497Z,6.57
2022-10-24T02:55:25.919Z,6.60
2022-10-24T02:57:54.051Z,6.90
2022-10-24T03:00:22.638Z,8.20
2022-10-24T03:02:50.706Z,6.80
2022-10-24T03:05:20.417Z,7.30
2022-10-24T03:07:48.548Z,8.00
2022-10-24T03:10:16.794Z,6.00
2022-10-24T03:12:45.098Z,6.47
2022-10-24T03:15:13.542Z,7.20
2022-10-24T03:17:41.875Z,6.72
2022-10-24T03:20:10.987Z,9.10
2022-10-24T03:22:40.461Z,6.75
2022-10-24T03:25:11.423Z,6.43
2022-10-24T03:27:40.045Z,7.10
2022-10-24T03:30:09.011Z,9.13
2022-10-24T03:32:37.252Z,9.15
2022-10-24T03:35:09.158Z,8.25
2022-10-24T03:37:41.447Z,8.35
2022-10-24T03:40:10.766Z,6.57
2022-10-24T03:42:39.125Z,7.60
2022-10-24T03:45:08.479Z,10.20
2022-10-24T03:47:36.621Z,7.43
2022-10-24T03:50:05.537Z,11.18
2022-10-24T03:52:33.813Z,8.57
2022-10-24T03:55:03.707Z,8.38
2022-10-24T03:57:31.867Z,8.60
2022-10-24T03:59:59.955Z,8.10
2022-10-24T04:02:28.086Z,8.48
2022-10-24T04:04:56.205Z,14.45
2022-10-24T04:07:24.855Z,13.30
2022-10-24T04:09:52.967Z,14.60
2022-10-24T04:12:22.549Z,16.75
2022-10-24T04:14:51.098Z,10.30
2022-10-24T04:17:19.203Z,10.07
2022-10-24T04:19:47.360Z,14.05
2022-10-24T04:22:15.595Z,10.45
2022-10-24T04:24:43.734Z,10.98
2022-10-24T04:27:11.846Z,10.55
2022-10-24T04:29:41.431Z,14.10
2022-10-24T04:32:09.546Z,14.38
2022-10-24T04:34:37.769Z,16.35
2022-10-24T04:37:06.083Z,11.05
2022-10-24T04:39:34.210Z,12.23
2022-10-24T04:42:02.387Z,12.30
2022-10-24T04:44:30.782Z,10.40
2022-10-24T04:47:00.416Z,13.98
2022-10-24T04:49:28.547Z,11.52
2022-10-24T04:51:56.641Z,9.60
2022-10-24T04:54:24.845Z,11.40
2022-10-24T04:56:52.962Z,10.73
2022-10-24T04:59:21.094Z,10.00
2022-10-24T05:01:49.301Z,11.15
2022-10-24T05:04:18.845Z,9.98
2022-10-24T05:06:47.145Z,12.15
2022-10-24T05:09:15.797Z,10.27
2022-10-24T05:11:43.882Z,12.18
2022-10-24T05:14:12.009Z,10.27
2022-10-24T05:16:40.592Z,19.80
2022-10-24T05:19:08.905Z,15.25
2022-10-24T05:21:38.429Z,15.95
2022-10-24T05:24:06.752Z,16.83
2022-10-24T05:26:34.878Z,13.95
2022-10-24T05:29:03.043Z,17.50
2022-10-24T05:34:04.220Z,15.52
2022-10-24T05:36:32.410Z,17.05
2022-10-24T05:39:01.953Z,15.65
2022-10-24T05:41:30.148Z,24.85
2022-10-24T05:43:58.262Z,23.63
2022-10-24T05:46:26.546Z,16.15
2022-10-24T05:48:54.734Z,22.50
2022-10-24T05:51:23.247Z,20.33
2022-10-24T05:53:51.387Z,14.98
2022-10-24T05:56:20.923Z,15.85
2022-10-24T05:58:49.046Z,22.58
2022-10-24T06:01:17.188Z,23.15
2022-10-24T06:03:45.340Z,22.38
2022-10-24T06:06:13.435Z,18.42
2022-10-24T06:08:41.643Z,24.48
2022-10-24T06:11:10.976Z,23.77
2022-10-24T06:13:40.665Z,16.33
2022-10-24T06:16:10.178Z,20.80
2022-10-24T06:18:39.274Z,21.60
2022-10-24T06:21:09.207Z,18.95
2022-10-24T06:23:37.830Z,24.77
2022-10-24T06:26:10.066Z,16.98
2022-10-24T06:28:38.310Z,24.70
2022-10-24T06:31:08.296Z,18.73
2022-10-24T06:33:36.571Z,17.73
2022-10-24T06:36:09.404Z,21.33
2022-10-24T06:38:37.997Z,19.97
2022-10-24T06:41:10.806Z,22.40
2022-10-24T06:43:39.467Z,18.23
2022-10-24T06:46:09.874Z,16.43
2022-10-24T06:48:38.662Z,27.57
2022-10-24T06:51:07.072Z,19.50
2022-10-24T06:53:35.704Z,20.90
2022-10-24T06:56:05.187Z,21.97
2022-10-24T06:58:33.894Z,21.00
2022-10-24T07:01:08.496Z,29.40
2022-10-24T07:03:38.885Z,19.23
2022-10-24T07:06:08.874Z,22.77
2022-10-24T07:08:37.316Z,19.87
2022-10-24T07:11:05.557Z,22.53
2022-10-24T07:13:33.711Z,19.57
2022-10-24T07:16:01.846Z,22.07
2022-10-24T07:18:30.033Z,18.13
2022-10-24T07:21:04.147Z,16.60
2022-10-24T07:23:32.547Z,15.80
2022-10-24T07:26:03.586Z,16.50
2022-10-24T07:28:31.914Z,21.90
2022-10-24T07:31:00.165Z,20.30
2022-10-24T07:33:28.882Z,19.77
2022-10-24T07:35:57.364Z,19.20
2022-10-24T07:38:27.011Z,20.70
2022-10-24T07:40:55.182Z,16.07
2022-10-24T07:43:23.311Z,21.17
2022-10-24T07:45:52.333Z,15.30
2022-10-24T07:48:20.843Z,12.33
2022-10-24T07:50:49.100Z,17.10
2022-10-24T07:53:17.475Z,13.60
2022-10-24T07:55:46.992Z,14.30
2022-10-24T07:58:15.369Z,15.53
2022-10-24T08:00:45.388Z,16.53
2022-10-24T08:03:14.375Z,16.93
2022-10-24T08:05:42.922Z,20.53
2022-10-24T08:08:30.869Z,13.97
2022-10-24T08:13:34.175Z,20.20
2022-10-24T08:16:02.862Z,17.53
2022-10-24T08:18:33.620Z,13.77
2022-10-24T08:21:06.549Z,14.60
2022-10-24T08:23:35.950Z,14.57
2022-10-24T08:26:07.395Z,13.13
2022-10-24T08:28:35.817Z,14.37
2022-10-24T08:31:05.841Z,13.23
2022-10-24T08:33:34.374Z,13.83
2022-10-24T08:36:05.006Z,12.10
2022-10-24T08:38:33.174Z,16.20
2022-10-24T08:41:01.560Z,16.17
2022-10-24T08:43:31.104Z,14.43
2022-10-24T08:46:09.438Z,17.63
2022-10-24T08:48:44.319Z,13.67
2022-10-24T08:51:21.185Z,16.57
2022-10-24T08:53:51.362Z,17.07
2022-10-24T08:56:19.877Z,15.20
2022-10-24T08:58:51.923Z,16.70
2022-10-24T09:01:31.127Z,13.90
2022-10-24T09:04:04.317Z,18.20
2022-10-24T09:06:33.913Z,14.00
2022-10-24T09:09:05.462Z,14.40
2022-10-24T09:11:42.651Z,17.00
2022-10-24T09:14:16.255Z,18.37
2022-10-24T09:16:46.874Z,15.40
2022-10-24T09:19:17.455Z,14.07
2022-10-24T09:21:46.897Z,12.83
2022-10-24T09:24:29.962Z,11.97
2022-10-24T09:27:00.757Z,11.30
2022-10-24T09:29:33.798Z,12.80
2022-10-24T09:32:03.229Z,11.67
2022-10-24T09:34:31.481Z,11.20
2022-10-24T09:36:59.918Z,9.63
2022-10-24T09:39:31.455Z,10.67
2022-10-24T09:42:01.007Z,11.13
2022-10-24T09:44:34.291Z,12.00
2022-10-24T09:47:04.676Z,10.97
2022-10-24T09:49:36.600Z,10.80
2022-10-24T09:52:09.470Z,14.53
2022-10-24T09:54:37.894Z,15.70
2022-10-24T09:59:45.497Z,11.60
2022-10-24T10:02:26.303Z,10.97
2022-10-24T10:05:17.499Z,13.67
2022-10-24T10:07:48.636Z,11.60
2022-10-24T10:10:30.736Z,11.17
2022-10-24T10:13:06.178Z,11.30
2022-10-24T10:15:39.400Z,10.23
2022-10-24T10:18:24.174Z,12.30
2022-10-24T10:21:01.355Z,10.53
2022-10-24T10:23:32.898Z,12.43
2022-10-24T10:26:17.964Z,10.57
2022-10-24T10:28:56.002Z,12.10
2022-10-24T10:31:34.785Z,10.60
2022-10-24T10:34:18.846Z,9.37
2022-10-24T10:37:18.886Z,10.47
2022-10-24T10:40:03.662Z,9.93
2022-10-24T10:42:37.507Z,11.03
2022-10-24T10:45:17.233Z,11.83
2022-10-24T10:48:02.425Z,12.20
2022-10-24T10:50:39.895Z,10.93
2022-10-24T10:53:22.738Z,11.30
2022-10-24T10:56:03.126Z,14.20
2022-10-24T11:01:23.156Z,10.27
2022-10-24T11:04:00.742Z,11.77
2022-10-24T11:06:39.090Z,11.23
2022-10-24T11:09:38.202Z,12.03
2022-10-24T11:12:14.957Z,12.33
2022-10-24T11:14:47.582Z,11.33
2022-10-24T11:17:20.242Z,10.47
2022-10-24T11:19:59.394Z,9.37
2022-10-24T11:22:32.315Z,10.00
2022-10-24T11:25:03.803Z,14.27
2022-10-24T11:27:41.259Z,12.00
2022-10-24T11:30:15.926Z,10.80
2022-10-24T11:32:48.733Z,11.43
2022-10-24T11:35:28.148Z,9.83
2022-10-24T11:38:00.109Z,10.43
2022-10-24T11:40:30.838Z,9.70
2022-10-24T11:43:08.521Z,9.90
2022-10-24T11:45:46.853Z,11.07
2022-10-24T11:48:20.701Z,8.20
2022-10-24T11:50:55.319Z,8.23
2022-10-24T11:53:48.412Z,12.10
2022-10-24T11:56:26.266Z,10.17
2022-10-24T11:59:00.282Z,9.50
2022-10-24T12:01:54.098Z,8.40
2022-10-24T12:04:44.033Z,10.20
2022-10-24T12:07:52.205Z,9.37
2022-10-24T12:10:35.588Z,12.37
2022-10-24T12:13:16.879Z,11.63
2022-10-24T12:15:53.282Z,6.53
2022-10-24T12:18:31.226Z,7.70
2022-10-24T12:21:04.424Z,11.50
2022-10-24T12:23:34.775Z,8.80
2022-10-24T12:26:05.255Z,9.67
2022-10-24T12:28:34.087Z,9.93
2022-10-24T12:31:23.827Z,9.97
2022-10-24T12:34:49.442Z,10.70
2022-10-24T12:37:37.750Z,9.53
2022-10-24T12:40:43.027Z,9.10
2022-10-24T12:43:28.954Z,8.83
2022-10-24T12:46:00.184Z,13.47
2022-10-24T12:48:37.052Z,13.30
2022-10-24T12:51:26.286Z,8.70
2022-10-24T12:54:04.234Z,10.43
2022-10-24T12:56:33.925Z,9.33
2022-10-24T12:59:20.105Z,12.20
2022-10-24T13:01:50.155Z,7.90
2022-10-24T13:04:52.293Z,10.77
2022-10-24T13:07:52.300Z,10.93
2022-10-24T13:10:37.584Z,7.07
2022-10-24T13:13:28.077Z,7.33
2022-10-24T13:16:03.187Z,13.20
2022-10-24T13:18:44.738Z,8.03
2022-10-24T13:21:23.387Z,19.23
2022-10-24T13:23:52.402Z,12.30
2022-10-24T13:26:39.721Z,8.60
2022-10-24T13:29:14.543Z,11.33
2022-10-24T13:31:50.212Z,6.77
2022-10-24T13:34:31.871Z,12.20
2022-10-24T13:37:08.085Z,6.97
2022-10-24T13:39:42.440Z,8.30
2022-10-24T13:42:24.519Z,9.37
2022-10-24T13:44:55.406Z,12.73
2022-10-24T13:47:29.658Z,7.47
2022-10-24T13:50:01.601Z,10.93
2022-10-24T13:52:38.153Z,8.17
2022-10-24T13:55:20.109Z,11.10
2022-10-24T13:57:53.945Z,10.17
2022-10-24T14:00:24.269Z,10.53
2022-10-24T14:02:54.957Z,10.70
2022-10-24T14:05:31.058Z,8.67
2022-10-24T14:08:00.723Z,10.93
2022-10-24T14:10:30.054Z,10.57
2022-10-24T14:12:59.170Z,9.30
2022-10-24T14:15:30.864Z,12.20
2022-10-24T14:18:03.236Z,9.57
2022-10-24T14:20:34.589Z,9.50
2022-10-24T14:23:03.426Z,13.00
2022-10-24T14:25:36.151Z,8.90
2022-10-24T14:28:15.657Z,8.87
2022-10-24T14:30:55.175Z,9.60
2022-10-24T14:33:26.985Z,9.57
2022-10-24T14:35:58.020Z,12.23
2022-10-24T14:38:27.899Z,12.00
2022-10-24T14:41:08.198Z,9.23
2022-10-24T14:43:42.121Z,10.13
2022-10-24T14:46:28.894Z,16.63
2022-10-24T14:49:02.946Z,11.93
2022-10-24T14:51:38.647Z,11.20
2022-10-24T14:54:18.585Z,11.20
2022-10-24T14:56:47.390Z,13.77
2022-10-24T14:59:26.251Z,8.77
2022-10-24T15:02:00.810Z,13.50
2022-10-24T15:04:37.517Z,13.33
2022-10-24T15:07:20.878Z,20.67
2022-10-24T15:09:54.031Z,13.53
2022-10-24T15:12:33.869Z,16.30
2022-10-24T15:15:23.056Z,12.50
2022-10-24T15:17:52.318Z,17.97
2022-10-24T15:20:24.453Z,16.50
2022-10-24T15:22:56.060Z,15.50
2022-10-24T15:25:28.639Z,27.27
2022-10-24T15:28:00.238Z,20.40
2022-10-24T15:30:30.485Z,21.93
2022-10-24T15:33:01.095Z,21.93
2022-10-24T15:35:34.985Z,21.10
2022-10-24T15:38:11.631Z,21.63
2022-10-24T15:40:43.320Z,14.87
2022-10-24T15:43:13.254Z,20.00
2022-10-24T15:45:41.398Z,25.27
2022-10-24T15:48:09.822Z,24.30
2022-10-24T15:50:45.150Z,19.90
2022-10-24T15:53:18.281Z,26.60
2022-10-24T15:55:46.953Z,18.37
2022-10-24T15:58:16.741Z,18.77
2022-10-24T16:00:45.062Z,18.40
2022-10-24T16:03:16.506Z,28.30
2022-10-24T16:05:51.927Z,21.77
2022-10-24T16:08:20.756Z,21.40
2022-10-24T16:10:50.897Z,20.90
2022-10-24T16:13:20.482Z,26.67
2022-10-24T16:15:48.838Z,21.47
2022-10-24T16:18:17.443Z,22.30
2022-10-24T16:20:47.300Z,20.80
2022-10-24T16:23:17.651Z,14.43
2022-10-24T16:25:47.078Z,17.20
2022-10-24T16:28:15.676Z,16.40
2022-10-24T16:30:43.960Z,18.60
2022-10-24T16:33:12.463Z,17.27
2022-10-24T16:35:41.630Z,15.30
2022-10-24T16:38:12.313Z,16.07
2022-10-24T16:40:42.141Z,20.13
2022-10-24T16:43:12.182Z,21.87
2022-10-24T16:45:40.595Z,21.40
2022-10-24T16:48:08.769Z,15.20
2022-10-24T16:50:37.001Z,16.23
2022-10-24T16:53:07.398Z,17.63
2022-10-24T16:55:37.330Z,24.37
2022-10-24T16:58:05.651Z,22.57
2022-10-24T17:00:33.801Z,28.03
2022-10-24T17:03:01.907Z,23.07
2022-10-24T17:05:30.070Z,22.17
2022-10-24T17:07:58.203Z,29.90
2022-10-24T17:10:26.739Z,17.50
2022-10-24T17:12:56.448Z,23.10
2022-10-24T17:15:24.554Z,24.43
2022-10-24T17:17:52.690Z,20.93
2022-10-24T17:20:20.870Z,23.47
2022-10-24T17:22:49.320Z,18.77
2022-10-24T17:25:21.423Z,28.53
2022-10-24T17:27:50.784Z,27.17
2022-10-24T17:30:22.724Z,24.73
2022-10-24T17:32:51.409Z,27.93
2022-10-24T17:35:21.634Z,29.17
2022-10-24T17:38:07.683Z,27.93
2022-10-24T17:40:42.602Z,25.37
2022-10-24T17:43:19.486Z,24.97
2022-10-24T17:45:50.491Z,30.70
2022-10-24T17:48:18.815Z,35.03
2022-10-24T17:50:47.689Z,28.77
2022-10-24T17:53:17.025Z,26.33
2022-10-24T17:55:47.439Z,31.77
2022-10-24T17:58:16.946Z,25.00
2022-10-24T18:00:45.330Z,28.23
2022-10-24T18:03:15.432Z,30.17
2022-10-24T18:05:43.602Z,36.30
2022-10-24T18:08:13.097Z,31.60
2022-10-24T18:10:42.487Z,35.63
2022-10-24T18:13:10.785Z,36.57
2022-10-24T18:15:38.988Z,39.97
2022-10-24T18:18:07.398Z,39.87
2022-10-24T18:20:37.039Z,41.43
2022-10-24T18:23:05.430Z,43.30
2022-10-24T18:25:33.564Z,33.00
2022-10-24T18:28:01.667Z,31.60
2022-10-24T18:30:29.940Z,36.83
2022-10-24T18:32:58.118Z,26.10
2022-10-24T18:35:28.779Z,36.63
2022-10-24T18:37:58.316Z,35.77
2022-10-24T18:40:26.840Z,40.63
2022-10-24T18:42:59.588Z,41.13
2022-10-24T18:45:29.152Z,43.37
2022-10-24T18:47:57.652Z,34.30
2022-10-24T18:50:26.497Z,36.13
2022-10-24T18:53:02.654Z,33.70
2022-10-24T18:55:32.910Z,37.50
2022-10-24T18:58:01.752Z,38.60
2022-10-24T19:00:32.636Z,36.20
2022-10-24T19:03:15.093Z,28.83
2022-10-24T19:05:47.896Z,21.90
2022-10-24T19:08:22.153Z,30.10
2022-10-24T19:10:51.748Z,30.90
2022-10-24T19:13:20.355Z,28.90
2022-10-24T19:15:53.501Z,33.83
2022-10-24T19:18:22.090Z,37.53
2022-10-24T19:20:50.290Z,48.10
2022-10-24T19:23:19.795Z,35.57
2022-10-24T19:25:47.923Z,39.60
2022-10-24T19:28:18.522Z,30.03
2022-10-24T19:30:47.915Z,24.37
2022-10-24T19:33:16.878Z,22.93
2022-10-24T19:35:47.198Z,22.73
2022-10-24T19:38:15.605Z,26.20
2022-10-24T19:40:49.671Z,33.27
2022-10-24T19:43:17.923Z,26.67
2022-10-24T19:45:50.652Z,36.07
2022-10-24T19:48:32.656Z,31.27
2022-10-24T19:51:04.290Z,25.47
2022-10-24T19:53:35.461Z,29.43
2022-10-24T19:56:10.026Z,22.10
2022-10-24T19:58:38.523Z,34.40
2022-10-24T20:01:07.413Z,34.60
2022-10-24T20:03:36.959Z,52.93
2022-10-24T20:06:05.696Z,48.27
2022-10-24T20:08:34.457Z,51.97
2022-10-24T20:11:03.090Z,49.37
2022-10-24T20:13:32.735Z,42.57
2022-10-24T20:16:04.069Z,57.67
2022-10-24T20:18:33.845Z,68.03
2022-10-24T20:21:04.067Z,65.80
2022-10-24T20:23:32.771Z,59.20
2022-10-24T20:26:02.965Z,54.43
2022-10-24T20:28:35.388Z,61.27
2022-10-24T20:31:04.018Z,66.47
2022-10-24T20:33:32.217Z,75.67
2022-10-24T20:36:00.766Z,61.17
2022-10-24T20:38:29.801Z,60.90
2022-10-24T20:41:02.511Z,65.30
2022-10-24T20:43:32.106Z,74.07
2022-10-24T20:46:00.306Z,68.00
2022-10-24T20:48:28.403Z,61.97
2022-10-24T20:51:04.022Z,57.67
2022-10-24T20:53:32.435Z,64.20
2022-10-24T20:56:05.273Z,65.00
2022-10-24T20:58:34.901Z,57.03
2022-10-24T21:01:07.209Z,76.33
2022-10-24T21:03:36.561Z,79.50
2022-10-24T21:06:05.706Z,78.97
2022-10-24T21:08:33.879Z,71.63
2022-10-24T21:11:06.763Z,68.37
2022-10-24T21:13:36.276Z,67.87
2022-10-24T21:16:04.424Z,61.87
2022-10-24T21:18:33.168Z,49.10
2022-10-24T21:21:07.302Z,46.90
2022-10-24T21:23:35.539Z,47.37
2022-10-24T21:26:05.522Z,48.10
2022-10-24T21:28:34.041Z,61.77
2022-10-24T21:31:06.420Z,48.70
2022-10-24T21:33:35.134Z,52.07
2022-10-24T21:36:06.190Z,65.77
2022-10-24T21:38:34.312Z,50.13
2022-10-24T21:41:03.001Z,45.43
2022-10-24T21:43:33.093Z,34.20
2022-10-24T21:46:07.714Z,37.63
2022-10-24T21:48:36.129Z,36.63
2022-10-24T21:51:06.590Z,34.30
2022-10-24T21:53:38.332Z,36.50
2022-10-24T21:56:08.747Z,69.80
2022-10-24T21:58:37.075Z,64.77
2022-10-24T22:01:12.343Z,74.73
2022-10-24T22:03:41.189Z,68.45
2022-10-24T22:06:11.999Z,69.35
2022-10-24T22:08:41.047Z,71.68
2022-10-24T22:11:12.232Z,64.25
2022-10-24T22:13:41.202Z,68.68
2022-10-24T22:16:11.971Z,46.35
2022-10-24T22:18:40.478Z,44.35
2022-10-24T22:21:10.950Z,45.15
2022-10-24T22:23:39.093Z,43.17
2022-10-24T22:26:07.210Z,39.65
2022-10-24T22:28:35.318Z,40.83
2022-10-24T22:31:03.981Z,48.33
2022-10-24T22:33:36.751Z,47.95
2022-10-24T22:36:12.766Z,51.78
2022-10-24T22:38:41.354Z,50.13
2022-10-24T22:41:11.102Z,44.73
2022-10-24T22:43:39.685Z,35.95
2022-10-24T22:46:19.716Z,36.13
2022-10-24T22:48:54.591Z,42.58
2022-10-24T22:51:23.277Z,45.15
2022-10-24T22:53:51.895Z,50.13
2022-10-24T22:56:27.083Z,42.40
2022-10-24T22:58:55.730Z,45.85
2022-10-24T23:01:44.341Z,43.00
2022-10-24T23:04:25.955Z,37.45
2022-10-24T23:06:59.448Z,39.65
2022-10-24T23:09:27.632Z,43.47
2022-10-24T23:11:56.410Z,46.28
2022-10-24T23:14:25.053Z,34.55
2022-10-24T23:16:58.817Z,39.05
2022-10-24T23:19:30.356Z,31.77
2022-10-24T23:22:01.852Z,28.80
2022-10-24T23:24:30.529Z,33.17
2022-10-24T23:27:24.306Z,28.88
2022-10-24T23:29:53.106Z,27.63
2022-10-24T23:32:24.156Z,34.08
2022-10-24T23:34:55.342Z,27.58
2022-10-24T23:37:32.372Z,24.67
2022-10-24T23:40:01.698Z,30.27
2022-10-24T23:42:30.507Z,34.95
2022-10-24T23:44:59.061Z,30.27
2022-10-24T23:47:45.715Z,40.60
2022-10-24T23:50:21.102Z,42.13
2022-10-24T23:53:01.439Z,48.97
2022-10-24T23:55:30.061Z,42.17
2022-10-24T23:57:58.189Z,41.28
